EGACEGBB

Guest
Details From EGAC - Belfast City
To EGBB - Birmingham
Flight Number -
Tags generated
Created
Modified
Stats Distance 196 nm / 363 km
Max Altitude 21,700 ft / 6,614 m
Waypoints 3
Social Downloads 3
Likes 0
Share VATSIM

Download

Looking for another format? Having issues loading an existing format? Contact us
Advertisement - Login to hide

Notes

Basic altitude profile: - Ascent Rate: 2500ft/min - Ascent Speed: 250kts - Cruise Altitude: 35000ft - Cruise Speed: 420kts - Descent Rate: 1500ft/min - Descent Speed: 250kts

Route

EGAC BABRA EGBB

ID Type Via Altitude Latitude Longitude Leg Dist Tot Dist Heading (true) Name
O EGAC APT - 0 ft / 0 m 54.61811˚ -5.87258˚ - 0 nm - Belfast City
BABRA FIX - 21,700 ft / 6,614 m 53.62771˚ -3.94656˚ 90 nm 90 nm 130° / 132° -
O EGBB APT - 0 ft / 0 m 52.45597˚ -1.75038˚ 106 nm 196 nm 131° / 132° Birmingham

Altitude Profile

Advertisement - Login to hide

Weather


0- 5 10 15 20 25 30 35+ Temperature / ° C

Clouds and Precipitation
Forecast for 2017-12-12 00:00 UTC. Updated 2 hours ago

Ground ~20,000 ft ~40,000 ft Winds

EGAC

Details ICAO EGAC (BHD)
Name Belfast City
Region United Kingdom
Timezone Europe/London (UTC+0.0)
Stats Elevation 15 ft / 5 m (AMSL)
Location 54.618108° -5.872575°
Runways 1
Magnetic Variation 3.092° W

METAR

EGAC 112320Z AUTO VRB01KT 9999 FEW034/// 01/M01 Q1002

Decode

TAF

Not found

Departure Runways

ID Width Length Bearing (true) Bearing (mag) Surface Threshold Offset Overrun Length
04 148 ft / 45 m 6,009 ft / 1,832 m 34.93° 38.02° Asphalt 302 ft / 92 m 0 ft / 0 m
22 148 ft / 45 m 6,009 ft / 1,832 m 214.94° 218.03° Asphalt 0 ft / 0 m 0 ft / 0 m

EGBB

Details ICAO EGBB (BHX)
Name Birmingham
Region United Kingdom
Timezone Europe/London (UTC+0.0)
Stats Elevation 327 ft / 100 m (AMSL)
Location 52.455966° -1.750378°
Runways 1
Magnetic Variation 1.141° W

METAR

EGBB 112320Z 29004KT CAVOK M03/M04 Q0999

Decode

TAF

TAF AMD EGBB 112059Z 1121/1218 VRB03KT 9999 FEW035 BECMG 1121/1124 6000 TEMPO 1121/1215 3000 BR PROB40 1203/1212 0300 FZFG VV/// PROB30 TEMPO 1212/1218 BKN004 BECMG 1215/1218 9999 NSW

Decode

Destination Runways

ID Width Length Bearing (true) Bearing (mag) Surface Threshold Offset Overrun Length
15 151 ft / 46 m 8,477 ft / 2,584 m 145.87° 147.01° Asphalt 925 ft / 282 m 0 ft / 0 m
33 151 ft / 46 m 8,477 ft / 2,584 m 325.89° 327.03° Asphalt 958 ft / 292 m 0 ft / 0 m

Approach Navaids

Runway Type Ident Frequency Range Bearing (true) Bearing (mag) Slope Elevation
15 Localiser IBIR 110.10 MHz 18 nm / 33 km 145.89° 147.03° - 325 ft / 99 m (AMSL)
15 Glidescope IBIR 110.10 MHz 10 nm / 19 km 145.88° 147.02° 3.00° 325 ft / 99 m (AMSL)
15 DME IBIR 110.10 MHz 18 nm / 33 km - - - 349 ft / 106 m (AMSL)
33 Localiser IBM 110.10 MHz 18 nm / 33 km 325.87° 327.01° - 325 ft / 99 m (AMSL)
33 Glidescope IBM 110.10 MHz 10 nm / 19 km 325.88° 327.02° 3.00° 325 ft / 99 m (AMSL)
33 DME IBM 110.10 MHz 18 nm / 33 km - - - 327 ft / 100 m (AMSL)

Popular Alternatives